Black River Falls, WI (54615)

2:00 AM CST on December 11, 2016 (GMT -0600)
Black River Falls Area | | Change Station
Active Advisory: Winter Storm Warning Active Notice: Public Information Statement

Elev 837 ft 44.25 °N, 90.86 °W | Updated 5 minutes ago

Light Snow
Light Snow
18 °F
Feels Like 9 °F
N
6
Wind Variable Wind from East

Today
High -- | Low -- °F
--% Chance of Precip.
Yesterday
High -- | Low -- °F
Precip. -- in
Pressure 30.13 in
Visibility 1.2 miles
Clouds Overcast 2300 ft
Windchill 9 °F
Dew Point 14 °F
Humidity 86%
Rainfall 0.01 in
Snow Depth Not available.
7:29 AM 4:24 PM
Waxing Gibbous, 90% visible
METAR KBCK 110755Z AUTO 09005KT 1 1/4SM -SN OVC023 M08/M10 A3013 RMK AO2 T10801100
Pressure 30.13 in
Visibility 1.2 miles
Clouds Overcast 2300 ft
Windchill 9 °F
Dew Point 14 °F
Humidity 86%
Rainfall 0.01 in
Snow Depth Not available.
7:29 AM 4:24 PM
Waxing Gibbous, 90% visible
METAR KBCK 110755Z AUTO 09005KT 1 1/4SM -SN OVC023 M08/M10 A3013 RMK AO2 T10801100

10-Day Weather Forecast

Almanac

Astronomy

Dec. 11, 2016 Rise Set
Actual Time
Civil Twilight
Nautical Twilight
Astronomical Twilight
Moon
Length of Visible Light
Length of Day
Tomorrow will be .
, % of the Moon is Illuminated

Today's Extremes

State Highs State Lows

Community

WunderPhotos

Upload Photos

1,956,707 photos uploaded!

WunderBlog® & News

Nearby

Air Quality

  Air Quality AQ Index Pollutant
Not available.

Snow Depth

Station Depth Elevation

Earthquake Activity

City Distance Mag. Time & Date
Minimum magnitude displayed is 2.5.

Coastal Water Temperatures

Place Temperature

Stations

Nearby Weather Stations

Station Location Temp. Windchill Dew Point Humidity Wind Precip. Elev Updated Type
                   

Watches & Warnings

Winter Storm Warning
Issued: 11:10 PM CST Dec. 10, 2016 – National Weather Service

... Winter Storm Warning in effect until 9 PM CST Sunday...

The National Weather Service in La Crosse has issued a Winter
Storm Warning for heavy snow... which is in effect until 9 PM CST
Sunday. This warning replaces the Winter Weather Advisory
previously in effect.

* Expect periods of snow to continue overnight into Sunday
morning... quickly tapering off Sunday afternoon.

* The heaviest snowfall rates are expected between midnight and 8
am Sunday.

* Total snow accumulations of 6 to 10 inches are expected...
including snow that has already fallen.

* Look for reduced visibility at times.

* Plan on difficult driving conditions.

Precautionary/preparedness actions...

A Winter Weather Advisory for snow means periods of snow will
cause primarily travel difficulties. Be prepared for snow covered
roads and limited visibilities... and use caution while driving.
The latest Road conditions for the state you are calling from can
be obtained by calling 5 1 1.